createdAt,value
2019-05-16T00:00:12.216Z,101483.20
2019-05-16T00:02:40.840Z,101480.90
2019-05-16T00:05:09.585Z,101478.70
2019-05-16T00:07:39.087Z,101476.52
2019-05-16T00:10:08.535Z,101470.36
2019-05-16T00:12:39.703Z,101473.00
2019-05-16T00:15:09.082Z,101466.25
2019-05-16T00:17:38.780Z,101463.82
2019-05-16T00:20:09.185Z,101463.06
2019-05-16T00:22:39.321Z,101456.69
2019-05-16T00:25:08.859Z,101453.13
2019-05-16T00:27:38.715Z,101449.73
2019-05-16T00:30:09.020Z,101453.42
2019-05-16T00:32:39.107Z,101445.38
2019-05-16T00:35:09.146Z,101447.52
2019-05-16T00:37:39.074Z,101448.36
2019-05-16T00:40:08.534Z,101438.80
2019-05-16T00:42:39.124Z,101433.23
2019-05-16T00:45:09.127Z,101436.48
2019-05-16T00:47:38.890Z,101440.33
2019-05-16T00:50:08.843Z,101436.35
2019-05-16T00:52:39.471Z,101432.69
2019-05-16T00:55:08.669Z,101432.85
2019-05-16T00:57:38.921Z,101431.07
2019-05-16T01:00:08.918Z,101430.91
2019-05-16T01:02:38.129Z,101433.56
2019-05-16T01:05:08.493Z,101432.30
2019-05-16T01:07:39.167Z,101422.20
2019-05-16T01:10:09.001Z,101424.89
2019-05-16T01:12:38.980Z,101420.72
2019-05-16T01:15:08.399Z,101420.09
2019-05-16T01:17:39.028Z,101413.27
2019-05-16T01:20:08.582Z,101418.55
2019-05-16T01:22:38.499Z,101419.58
2019-05-16T01:25:09.422Z,101420.05
2019-05-16T01:27:38.755Z,101412.06
2019-05-16T01:30:09.062Z,101410.39
2019-05-16T01:32:39.226Z,101410.61
2019-05-16T01:35:08.416Z,101405.78
2019-05-16T01:37:38.302Z,101406.13
2019-05-16T01:40:08.171Z,101403.34
2019-05-16T01:42:38.551Z,101398.45
2019-05-16T01:45:08.312Z,101396.28
2019-05-16T01:47:39.086Z,101399.34
2019-05-16T01:50:09.183Z,101390.73
2019-05-16T01:52:38.310Z,101389.23
2019-05-16T01:55:08.249Z,101387.69
2019-05-16T01:57:39.102Z,101387.69
2019-05-16T02:00:08.632Z,101385.24
2019-05-16T02:02:38.511Z,101384.61
2019-05-16T02:05:08.295Z,101378.28
2019-05-16T02:07:38.832Z,101377.57
2019-05-16T02:10:08.943Z,101375.30
2019-05-16T02:12:38.395Z,101377.50
2019-05-16T02:15:08.719Z,101378.23
2019-05-16T02:17:38.370Z,101375.70
2019-05-16T02:20:08.730Z,101374.09
2019-05-16T02:22:39.032Z,101366.62
2019-05-16T02:25:09.349Z,101362.69
2019-05-16T02:27:40.945Z,101364.37
2019-05-16T02:30:12.614Z,101359.36
2019-05-16T02:32:41.644Z,101354.34
2019-05-16T02:35:11.900Z,101349.78
2019-05-16T02:37:42.092Z,101352.08
2019-05-16T02:40:13.233Z,101350.14
2019-05-16T02:42:42.545Z,101351.46
2019-05-16T02:45:11.474Z,101348.20
2019-05-16T02:47:42.544Z,101345.09
2019-05-16T02:50:12.236Z,101352.37
2019-05-16T02:52:41.697Z,101348.35
2019-05-16T02:55:11.646Z,101345.60
2019-05-16T02:57:41.703Z,101337.48
2019-05-16T03:00:12.444Z,101338.29
2019-05-16T03:02:42.180Z,101333.69
2019-05-16T03:05:12.519Z,101333.58
2019-05-16T03:07:46.810Z,101332.77
2019-05-16T03:10:13.616Z,101329.56
2019-05-16T03:12:43.939Z,101323.92
2019-05-16T03:15:13.205Z,101328.17
2019-05-16T03:17:42.731Z,101323.59
2019-05-16T03:20:11.811Z,101321.91
2019-05-16T03:22:41.491Z,101320.38
2019-05-16T03:25:11.469Z,101314.48
2019-05-16T03:27:41.396Z,101314.63
2019-05-16T03:30:15.227Z,101318.89
2019-05-16T03:32:44.647Z,101310.81
2019-05-16T03:35:15.159Z,101308.16
2019-05-16T03:37:54.924Z,101305.78
2019-05-16T03:40:15.402Z,101310.93
2019-05-16T03:42:44.011Z,101306.45
2019-05-16T03:45:12.760Z,101307.56
2019-05-16T03:47:42.728Z,101300.91
2019-05-16T03:50:11.621Z,101300.23
2019-05-16T03:52:43.342Z,101303.88
2019-05-16T03:55:11.183Z,101304.42
2019-05-16T03:57:41.707Z,101301.34
2019-05-16T04:00:12.134Z,101309.42
2019-05-16T04:02:44.754Z,101304.58
2019-05-16T04:05:11.683Z,101306.38
2019-05-16T04:07:41.376Z,101299.28
2019-05-16T04:10:11.368Z,101299.98
2019-05-16T04:12:42.058Z,101303.96
2019-05-16T04:15:11.501Z,101306.02
2019-05-16T04:17:41.324Z,101298.48
2019-05-16T04:20:11.549Z,101298.77
2019-05-16T04:22:41.040Z,101297.68
2019-05-16T04:25:11.450Z,101295.05
2019-05-16T04:27:41.619Z,101301.11
2019-05-16T04:30:11.855Z,101307.29
2019-05-16T04:32:41.979Z,101297.78
2019-05-16T04:35:11.574Z,101303.23
2019-05-16T04:37:42.164Z,101300.73
2019-05-16T04:40:12.014Z,101304.26
2019-05-16T04:42:41.930Z,101300.81
2019-05-16T04:45:12.136Z,101306.56
2019-05-16T04:47:41.605Z,101305.34
2019-05-16T04:50:11.964Z,101298.37
2019-05-16T04:52:41.946Z,101304.52
2019-05-16T04:55:12.107Z,101304.91
2019-05-16T04:57:42.282Z,101310.11
2019-05-16T05:00:11.916Z,101303.73
2019-05-16T05:02:41.936Z,101300.67
2019-05-16T05:05:12.591Z,101298.86
2019-05-16T05:07:41.642Z,101296.16
2019-05-16T05:10:11.319Z,101293.94
2019-05-16T05:12:41.055Z,101288.48
2019-05-16T05:15:11.443Z,101297.20
2019-05-16T05:17:41.157Z,101290.13
2019-05-16T05:20:10.747Z,101296.69
2019-05-16T05:22:40.062Z,101293.81
2019-05-16T05:25:10.889Z,101302.72
2019-05-16T05:27:41.185Z,101292.63
2019-05-16T05:30:10.782Z,101298.09
2019-05-16T05:32:41.423Z,101293.89
2019-05-16T05:35:10.974Z,101290.19
2019-05-16T05:37:41.050Z,101288.91
2019-05-16T05:40:10.654Z,101289.95
2019-05-16T05:42:39.972Z,101286.73
2019-05-16T05:45:11.128Z,101285.06
2019-05-16T05:47:40.342Z,101280.09
2019-05-16T05:50:11.148Z,101278.50
2019-05-16T05:52:41.209Z,101281.85
2019-05-16T05:55:10.826Z,101285.00
2019-05-16T05:57:40.365Z,101290.52
2019-05-16T06:00:10.136Z,101289.41
2019-05-16T06:02:40.352Z,101296.61
2019-05-16T06:05:10.569Z,101289.56
2019-05-16T06:07:40.561Z,101289.59
2019-05-16T06:10:10.654Z,101300.25
2019-05-16T06:12:40.832Z,101300.50
2019-05-16T06:15:12.865Z,101296.80
2019-05-16T06:17:40.785Z,101291.17
2019-05-16T06:20:14.652Z,101291.53
2019-05-16T06:22:40.709Z,101297.80
2019-05-16T06:25:13.450Z,101300.25
2019-05-16T06:27:40.755Z,101299.59
2019-05-16T06:30:11.536Z,101292.08
2019-05-16T06:32:40.332Z,101292.42
2019-05-16T06:35:09.728Z,101285.31
2019-05-16T06:37:40.637Z,101287.63
2019-05-16T06:40:11.029Z,101287.27
2019-05-16T06:42:40.409Z,101272.81
2019-05-16T06:45:10.320Z,101275.14
2019-05-16T06:47:39.876Z,101283.06
2019-05-16T06:50:10.988Z,101269.27
2019-05-16T06:52:40.887Z,101273.55
2019-05-16T06:55:10.269Z,101255.35
2019-05-16T06:57:40.897Z,101262.89
2019-05-16T07:00:11.209Z,101263.75
2019-05-16T07:02:40.882Z,101261.33
2019-05-16T07:05:10.490Z,101256.30
2019-05-16T07:07:40.486Z,101254.99
2019-05-16T07:10:09.914Z,101252.70
2019-05-16T07:12:41.083Z,101252.80
2019-05-16T07:15:12.444Z,101243.56
2019-05-16T07:17:41.415Z,101247.40
2019-05-16T07:20:11.522Z,101248.78
2019-05-16T07:22:40.764Z,101236.81
2019-05-16T07:25:10.681Z,101242.39
2019-05-16T07:27:40.109Z,101234.16
2019-05-16T07:30:10.672Z,101227.64
2019-05-16T07:32:40.462Z,101225.14
2019-05-16T07:35:09.948Z,101217.62
2019-05-16T07:37:39.901Z,101214.59
2019-05-16T07:40:19.111Z,101209.05
2019-05-16T07:42:40.439Z,101203.50
2019-05-16T07:45:11.262Z,101208.23
2019-05-16T07:47:40.453Z,101210.72
2019-05-16T07:50:10.429Z,101207.30
2019-05-16T07:52:40.145Z,101207.51
2019-05-16T07:55:10.775Z,101199.80
2019-05-16T07:57:40.074Z,101201.94
2019-05-16T08:00:09.773Z,101209.75
2019-05-16T08:02:40.263Z,101213.92
2019-05-16T08:05:10.322Z,101216.18
2019-05-16T08:07:40.636Z,101212.73
2019-05-16T08:10:10.573Z,101203.15
2019-05-16T08:12:40.693Z,101213.98
2019-05-16T08:15:10.326Z,101209.27
2019-05-16T08:17:41.368Z,101204.70
2019-05-16T08:20:10.938Z,101198.73
2019-05-16T08:22:41.597Z,101205.11
2019-05-16T08:25:10.884Z,101193.89
2019-05-16T08:27:41.368Z,101195.72
2019-05-16T08:30:11.340Z,101197.09
2019-05-16T08:32:42.288Z,101191.76
2019-05-16T08:35:11.134Z,101191.86
2019-05-16T08:37:45.997Z,101188.52
2019-05-16T08:40:11.708Z,101189.57
2019-05-16T08:42:41.614Z,101179.03
2019-05-16T08:45:12.669Z,101170.86
2019-05-16T08:47:42.563Z,101176.69
2019-05-16T08:50:14.544Z,101178.33
2019-05-16T08:52:44.077Z,101173.63
2019-05-16T08:55:13.655Z,101170.62
2019-05-16T08:57:42.535Z,101169.25
2019-05-16T09:00:14.698Z,101166.98
2019-05-16T09:02:42.621Z,101165.71
2019-05-16T09:07:41.869Z,101154.44
2019-05-16T09:10:30.922Z,101157.18
2019-05-16T09:10:50.168Z,101152.94
2019-05-16T09:12:41.558Z,101153.50
2019-05-16T09:15:10.412Z,101146.30
2019-05-16T09:17:39.087Z,101155.19
2019-05-16T09:20:08.246Z,101144.91
2019-05-16T09:22:37.881Z,101143.22
2019-05-16T09:25:08.188Z,101144.59
2019-05-16T09:27:38.091Z,101141.46
2019-05-16T09:30:09.188Z,101123.92
2019-05-16T09:32:42.411Z,101128.64
2019-05-16T09:35:09.759Z,101124.50
2019-05-16T09:37:38.540Z,101126.09
2019-05-16T09:40:07.784Z,101117.99
2019-05-16T09:42:37.340Z,101109.25
2019-05-16T09:45:07.502Z,101116.30
2019-05-16T09:47:39.085Z,101110.02
2019-05-16T09:50:08.302Z,101106.02
2019-05-16T09:52:37.110Z,101107.13
2019-05-16T09:55:07.202Z,101101.87
2019-05-16T09:57:37.663Z,101098.80
2019-05-16T10:00:11.671Z,101109.62
2019-05-16T10:02:40.414Z,101098.28
2019-05-16T10:05:13.132Z,101102.34
2019-05-16T10:07:40.009Z,101097.14
2019-05-16T10:10:08.902Z,101103.75
2019-05-16T10:12:37.661Z,101100.73
2019-05-16T10:15:07.457Z,101091.55
2019-05-16T10:17:37.012Z,101087.62
2019-05-16T10:20:08.026Z,101089.80
2019-05-16T10:22:37.410Z,101088.45
2019-05-16T10:25:07.443Z,101089.64
2019-05-16T10:27:36.747Z,101080.28
2019-05-16T10:30:08.510Z,101081.00
2019-05-16T10:32:39.724Z,101079.78
2019-05-16T10:35:08.900Z,101089.64
2019-05-16T10:37:37.813Z,101087.92
2019-05-16T10:40:07.696Z,101087.18
2019-05-16T10:42:38.041Z,101077.37
2019-05-16T10:45:08.677Z,101084.33
2019-05-16T10:47:37.645Z,101072.67
2019-05-16T10:50:07.234Z,101078.77
2019-05-16T10:52:36.711Z,101069.02
2019-05-16T10:55:08.198Z,101070.02
2019-05-16T10:57:37.812Z,101067.20
2019-05-16T11:00:16.407Z,101052.91
2019-05-16T11:02:38.766Z,101059.63
2019-05-16T11:05:25.751Z,101071.19
2019-05-16T11:07:37.972Z,101051.78
2019-05-16T11:10:07.332Z,101048.72
2019-05-16T11:12:47.385Z,101046.27
2019-05-16T11:15:10.966Z,101053.06
2019-05-16T11:17:38.155Z,101039.73
2019-05-16T11:20:07.527Z,101036.70
2019-05-16T11:22:37.089Z,101032.55
2019-05-16T11:25:18.482Z,101029.32
2019-05-16T11:27:37.643Z,101022.12
2019-05-16T11:30:07.809Z,101031.94
2019-05-16T11:32:37.495Z,101031.45
2019-05-16T11:35:07.358Z,101028.61
2019-05-16T11:37:37.562Z,101018.59
2019-05-16T11:40:08.070Z,101019.34
2019-05-16T11:42:38.053Z,101026.71
2019-05-16T11:45:09.801Z,101023.03
2019-05-16T11:47:39.554Z,101010.88
2019-05-16T11:50:08.695Z,101015.47
2019-05-16T11:52:40.595Z,101018.83
2019-05-16T11:55:08.169Z,101015.91
2019-05-16T11:57:37.998Z,101008.72
2019-05-16T12:00:08.774Z,101006.41
2019-05-16T12:02:41.799Z,101001.12
2019-05-16T12:05:08.302Z,101005.72
2019-05-16T12:07:44.071Z,101000.34
2019-05-16T12:10:08.996Z,101000.10
2019-05-16T12:12:37.955Z,100995.83
2019-05-16T12:15:08.073Z,100987.95
2019-05-16T12:17:37.423Z,100988.61
2019-05-16T12:20:07.828Z,100979.57
2019-05-16T12:22:37.803Z,100987.31
2019-05-16T12:25:08.335Z,100987.64
2019-05-16T12:27:42.381Z,100988.20
2019-05-16T12:30:13.790Z,100992.16
2019-05-16T12:32:39.486Z,100988.13
2019-05-16T12:35:08.428Z,100989.11
2019-05-16T12:37:37.582Z,100980.17
2019-05-16T12:40:06.628Z,100981.88
2019-05-16T12:42:36.483Z,100976.70
2019-05-16T12:45:06.996Z,100977.64
2019-05-16T12:47:37.516Z,100977.53
2019-05-16T12:50:08.721Z,100969.66
2019-05-16T12:52:38.417Z,100966.89
2019-05-16T12:55:07.580Z,100967.30
2019-05-16T12:57:38.321Z,100960.08
2019-05-16T13:00:08.598Z,100962.86
2019-05-16T13:02:38.882Z,100955.85
2019-05-16T13:05:08.103Z,100954.23
2019-05-16T13:07:37.728Z,100940.97
2019-05-16T13:10:07.274Z,100944.19
2019-05-16T13:12:37.794Z,100943.60
2019-05-16T13:15:07.356Z,100943.80
2019-05-16T13:17:37.176Z,100933.74
2019-05-16T13:20:07.757Z,100932.73
2019-05-16T13:22:38.419Z,100935.66
2019-05-16T13:25:07.656Z,100928.37
2019-05-16T13:27:37.326Z,100923.01
2019-05-16T13:30:07.943Z,100913.23
2019-05-16T13:32:37.556Z,100903.14
2019-05-16T13:35:07.731Z,100892.94
2019-05-16T13:37:36.791Z,100897.97
2019-05-16T13:40:07.875Z,100898.57
2019-05-16T13:42:37.644Z,100909.00
2019-05-16T13:45:07.183Z,100899.11
2019-05-16T13:47:37.607Z,100896.53
2019-05-16T13:50:12.060Z,100891.11
2019-05-16T13:52:38.877Z,100877.13
2019-05-16T13:55:08.326Z,100866.78
2019-05-16T13:57:37.601Z,100861.02
2019-05-16T14:00:07.846Z,100843.20
2019-05-16T14:02:37.725Z,100840.39
2019-05-16T14:05:07.665Z,100838.31
2019-05-16T14:07:37.306Z,100835.68
2019-05-16T14:10:07.737Z,100827.02
2019-05-16T14:12:36.828Z,100834.02
2019-05-16T14:15:07.944Z,100835.38
2019-05-16T14:17:37.437Z,100833.78
2019-05-16T14:20:14.572Z,100838.84
2019-05-16T14:22:38.098Z,100840.85
2019-05-16T14:25:07.413Z,100841.08
2019-05-16T14:27:38.300Z,100838.27
2019-05-16T14:30:07.981Z,100840.21
2019-05-16T14:32:41.572Z,100837.47
2019-05-16T14:35:08.777Z,100837.37
2019-05-16T14:37:38.407Z,100828.61
2019-05-16T14:40:07.791Z,100830.55
2019-05-16T14:42:38.573Z,100820.94
2019-05-16T14:45:13.927Z,100817.63
2019-05-16T14:47:42.597Z,100809.77
2019-05-16T14:50:13.994Z,100810.09
2019-05-16T14:52:42.455Z,100809.77
2019-05-16T14:55:11.210Z,100802.91
2019-05-16T14:57:39.949Z,100798.06
2019-05-16T15:00:09.914Z,100790.73
2019-05-16T15:02:38.861Z,100795.11
2019-05-16T15:05:08.074Z,100796.64
2019-05-16T15:07:37.487Z,100785.97
2019-05-16T15:10:07.515Z,100779.92
2019-05-16T15:12:37.604Z,100788.54
2019-05-16T15:15:20.312Z,100784.12
2019-05-16T15:17:38.619Z,100783.43
2019-05-16T15:20:09.203Z,100781.65
2019-05-16T15:22:38.569Z,100776.42
2019-05-16T15:25:08.162Z,100774.00
2019-05-16T15:27:37.466Z,100778.38
2019-05-16T15:30:07.280Z,100763.85
2019-05-16T15:32:38.474Z,100768.92
2019-05-16T15:35:08.414Z,100754.63
2019-05-16T15:37:37.695Z,100754.66
2019-05-16T15:40:07.311Z,100755.60
2019-05-16T15:42:37.333Z,100742.71
2019-05-16T15:45:07.248Z,100746.27
2019-05-16T15:47:37.544Z,100733.72
2019-05-16T15:50:08.306Z,100742.05
2019-05-16T15:52:38.118Z,100741.64
2019-05-16T15:55:09.977Z,100730.59
2019-05-16T15:57:38.868Z,100732.63
2019-05-16T16:00:10.720Z,100718.70
2019-05-16T16:02:38.804Z,100719.75
2019-05-16T16:05:08.175Z,100721.91
2019-05-16T16:07:38.113Z,100718.27
2019-05-16T16:10:07.413Z,100719.78
2019-05-16T16:12:37.524Z,100713.27
2019-05-16T16:15:07.781Z,100713.48
2019-05-16T16:17:38.016Z,100711.58
2019-05-16T16:20:10.459Z,100704.00
2019-05-16T16:22:38.187Z,100694.97
2019-05-16T16:25:07.290Z,100695.50
2019-05-16T16:27:36.132Z,100689.84
2019-05-16T16:30:06.853Z,100693.73
2019-05-16T16:32:38.023Z,100687.03
2019-05-16T16:35:08.014Z,100690.06
2019-05-16T16:37:37.863Z,100681.64
2019-05-16T16:40:11.439Z,100681.73
2019-05-16T16:42:37.791Z,100674.11
2019-05-16T16:45:07.448Z,100676.71
2019-05-16T16:47:37.761Z,100672.62
2019-05-16T16:50:08.072Z,100673.73
2019-05-16T16:52:37.968Z,100669.27
2019-05-16T16:55:07.493Z,100665.38
2019-05-16T16:57:38.298Z,100671.27
2019-05-16T17:00:09.230Z,100669.92
2019-05-16T17:02:37.864Z,100667.66
2019-05-16T17:05:11.422Z,100671.00
2019-05-16T17:07:37.796Z,100670.72
2019-05-16T17:10:07.176Z,100664.88
2019-05-16T17:12:41.663Z,100658.19
2019-05-16T17:15:08.562Z,100661.24
2019-05-16T17:17:37.870Z,100661.52
2019-05-16T17:20:08.312Z,100661.55
2019-05-16T17:22:37.744Z,100656.79
2019-05-16T17:25:08.139Z,100655.09
2019-05-16T17:27:37.659Z,100651.71
2019-05-16T17:30:17.034Z,100655.91
2019-05-16T17:32:45.513Z,100644.23
2019-05-16T17:35:18.762Z,100639.77
2019-05-16T17:37:46.993Z,100641.73
2019-05-16T17:40:17.754Z,100650.33
2019-05-16T17:42:47.654Z,100650.56
2019-05-16T17:45:18.124Z,100645.29
2019-05-16T17:47:46.972Z,100647.50
2019-05-16T17:50:17.314Z,100640.55
2019-05-16T17:52:47.640Z,100644.20
2019-05-16T17:55:18.099Z,100638.56
2019-05-16T17:57:46.741Z,100624.84
2019-05-16T18:00:25.017Z,100628.77
2019-05-16T18:02:48.058Z,100629.84
2019-05-16T18:05:17.369Z,100634.08
2019-05-16T18:07:47.466Z,100634.30
2019-05-16T18:10:16.854Z,100633.69
2019-05-16T18:12:47.730Z,100634.87
2019-05-16T18:15:21.536Z,100634.61
2019-05-16T18:17:50.210Z,100634.36
2019-05-16T18:20:22.160Z,100640.65
2019-05-16T18:22:50.225Z,100639.55
2019-05-16T18:25:19.018Z,100638.13
2019-05-16T18:27:47.780Z,100631.72
2019-05-16T18:30:21.720Z,100625.12
2019-05-16T18:32:50.599Z,100626.31
2019-05-16T18:35:19.334Z,100617.86
2019-05-16T18:37:48.161Z,100612.77
2019-05-16T18:40:17.059Z,100612.40
2019-05-16T18:42:47.657Z,100611.95
2019-05-16T18:45:16.775Z,100611.72
2019-05-16T18:47:47.023Z,100606.08
2019-05-16T18:50:18.113Z,100603.75
2019-05-16T18:52:47.244Z,100595.36
2019-05-16T18:55:16.919Z,100604.23
2019-05-16T18:57:47.289Z,100602.19
2019-05-16T19:00:17.765Z,100593.63
2019-05-16T19:02:47.842Z,100599.34
2019-05-16T19:05:17.416Z,100590.30
2019-05-16T19:07:47.614Z,100593.14
2019-05-16T19:10:17.703Z,100594.25
2019-05-16T19:12:47.721Z,100586.39
2019-05-16T19:15:17.812Z,100595.12
2019-05-16T19:17:46.806Z,100592.38
2019-05-16T19:20:18.024Z,100586.27
2019-05-16T19:22:46.924Z,100587.58
2019-05-16T19:25:18.352Z,100582.50
2019-05-16T19:27:46.559Z,100579.41
2019-05-16T19:30:17.188Z,100577.14
2019-05-16T19:32:46.891Z,100580.52
2019-05-16T19:35:16.539Z,100578.12
2019-05-16T19:37:47.024Z,100579.16
2019-05-16T19:40:17.355Z,100578.92
2019-05-16T19:42:47.252Z,100578.16
2019-05-16T19:45:17.075Z,100578.53
2019-05-16T19:47:46.961Z,100587.19
2019-05-16T19:50:16.495Z,100584.01
2019-05-16T19:52:47.190Z,100579.83
2019-05-16T19:55:16.122Z,100584.92
2019-05-16T19:57:46.633Z,100575.71
2019-05-16T20:00:17.460Z,100580.67
2019-05-16T20:02:47.315Z,100584.88
2019-05-16T20:05:17.253Z,100577.06
2019-05-16T20:07:45.875Z,100577.14
2019-05-16T20:10:16.843Z,100575.20
2019-05-16T20:12:46.333Z,100576.93
2019-05-16T20:15:16.585Z,100575.75
2019-05-16T20:17:56.149Z,100567.73
2019-05-16T20:20:18.529Z,100569.55
2019-05-16T20:22:46.696Z,100559.63
2019-05-16T20:25:16.377Z,100563.91
2019-05-16T20:27:46.943Z,100559.63
2019-05-16T20:30:17.307Z,100561.72
2019-05-16T20:32:45.867Z,100560.34
2019-05-16T20:35:14.657Z,100554.73
2019-05-16T20:37:43.395Z,100552.80
2019-05-16T20:40:12.904Z,100547.00
2019-05-16T20:42:41.552Z,100549.14
2019-05-16T20:45:10.365Z,100547.62
2019-05-16T20:47:38.903Z,100545.44
2019-05-16T20:50:07.933Z,100547.02
2019-05-16T20:52:37.833Z,100546.69
2019-05-16T20:55:07.917Z,100545.77
2019-05-16T20:57:37.594Z,100546.09
2019-05-16T21:00:07.919Z,100540.53
2019-05-16T21:02:37.816Z,100540.95
2019-05-16T21:05:07.485Z,100538.77
2019-05-16T21:07:37.435Z,100536.23
2019-05-16T21:10:08.205Z,100537.38
2019-05-16T21:12:40.090Z,100530.63
2019-05-16T21:15:08.032Z,100530.63
2019-05-16T21:17:36.775Z,100535.67
2019-05-16T21:20:07.361Z,100531.78
2019-05-16T21:22:37.062Z,100530.80
2019-05-16T21:25:06.900Z,100530.67
2019-05-16T21:27:37.859Z,100522.09
2019-05-16T21:30:07.836Z,100524.24
2019-05-16T21:32:36.738Z,100519.75
2019-05-16T21:35:07.156Z,100522.81
2019-05-16T21:37:37.393Z,100524.24
2019-05-16T21:40:08.617Z,100515.06
2019-05-16T21:42:37.297Z,100519.95
2019-05-16T21:45:06.583Z,100512.05
2019-05-16T21:47:36.940Z,100516.06
2019-05-16T21:50:07.463Z,100517.77
2019-05-16T21:52:36.517Z,100514.03
2019-05-16T21:55:07.061Z,100510.31
2019-05-16T21:57:37.717Z,100513.84
2019-05-16T22:00:14.020Z,100505.78
2019-05-16T22:02:43.066Z,100508.21
2019-05-16T22:05:11.984Z,100503.08
2019-05-16T22:07:40.718Z,100502.25
2019-05-16T22:10:09.468Z,100507.09
2019-05-16T22:12:38.525Z,100504.42
2019-05-16T22:15:07.593Z,100497.33
2019-05-16T22:17:36.626Z,100497.66
2019-05-16T22:20:07.013Z,100491.53
2019-05-16T22:22:38.168Z,100489.51
2019-05-16T22:25:08.686Z,100492.88
2019-05-16T22:27:37.194Z,100491.22
2019-05-16T22:30:10.001Z,100483.44
2019-05-16T22:32:39.050Z,100480.54
2019-05-16T22:35:08.134Z,100479.59
2019-05-16T22:37:48.861Z,100480.14
2019-05-16T22:40:07.679Z,100473.83
2019-05-16T22:42:37.440Z,100479.83
2019-05-16T22:45:08.825Z,100480.30
2019-05-16T22:47:37.701Z,100470.02
2019-05-16T22:50:07.444Z,100472.44
2019-05-16T22:52:36.869Z,100470.10
2019-05-16T22:55:07.462Z,100472.88
2019-05-16T22:57:36.236Z,100469.19
2019-05-16T23:00:07.483Z,100461.17
2019-05-16T23:02:36.772Z,100466.33
2019-05-16T23:05:07.332Z,100466.80
2019-05-16T23:07:36.760Z,100463.91
2019-05-16T23:10:07.178Z,100459.66
2019-05-16T23:12:37.156Z,100461.05
2019-05-16T23:15:06.692Z,100450.27
2019-05-16T23:17:37.545Z,100455.53
2019-05-16T23:20:06.620Z,100452.08
2019-05-16T23:22:36.761Z,100445.17
2019-05-16T23:25:06.567Z,100440.77
2019-05-16T23:27:36.895Z,100443.87
2019-05-16T23:30:07.454Z,100434.59
2019-05-16T23:32:36.614Z,100432.95
2019-05-16T23:35:06.881Z,100429.59
2019-05-16T23:37:37.046Z,100431.38
2019-05-16T23:40:07.472Z,100435.26
2019-05-16T23:42:37.050Z,100424.31
2019-05-16T23:45:08.677Z,100423.55
2019-05-16T23:47:37.356Z,100419.98
2019-05-16T23:50:07.586Z,100420.02
2019-05-16T23:52:36.918Z,100415.70
2019-05-16T23:55:08.183Z,100413.75
2019-05-16T23:57:37.330Z,100418.07
